Sea Island, GA

10:26 AM EDT on August 01, 2014 (GMT -0400)
McKinnon (KSSI) Elev 20 ft | 31.15 °N, 81.39 °W | Change Station

Current weather conditions updated 6 minutes ago

Mostly Cloudy
Mostly Cloudy
84 °F
Feels Like 91 °F
N
4
Wind Variable Wind from West

Today is forecast to be Cooler than yesterday. A few thunderstorms possible.

Today
High -- | Low -- °F
--% Chance of Precip.
Yesterday
High -- | Low -- °F
Precip. -- in
6:42 AM 8:20 PM
Waxing Crescent, 27% visible
Pressure 29.99 in
Visibility 10.0 miles
Clouds Few 1900 ft
Mostly Cloudy 2800 ft
Heat Index 91 °F
Dew Point 74 °F
Humidity 72%
Rainfall 0.00 in
Snow Depth Not available.
UV 4 out of 12
Pollen 6.10 out of 12
Air Quality Not available.
Flu Activity Not available.
SPECI KSSI 011420Z AUTO 28003KT 10SM FEW019 BKN028 29/23 A2999 RMK AO2 T02890233

More Conditions Fewer Conditions

Pressure 29.99 in
Visibility 10.0 miles
Clouds Few 1900 ft
Mostly Cloudy 2800 ft
Heat Index 91 °F
Dew Point 74 °F
Humidity 72%
Rainfall 0.00 in
Snow Depth Not available.
UV 4 out of 12
Pollen 6.10 out of 12
Air Quality Not available.
Flu Activity Not available.
SPECI KSSI 011420Z AUTO 28003KT 10SM FEW019 BKN028 29/23 A2999 RMK AO2 T02890233

More Conditions Fewer Conditions

10-Day Weather Forecast

Almanac

Astronomy

Aug. 01, 2014 Rise Set
Actual Time 6:42 AM EDT 8:20 PM EDT
Civil Twilight 6:15 AM EDT 8:47 PM EDT
Nautical Twilight 5:44 AM EDT 9:18 PM EDT
Astronomical Twilight 5:10 AM EDT 9:51 PM EDT
Moon 11:40 AM EDT 11:30 PM EDT
Length of Visible Light 14h 31m
Length of Day
13h 38m
Tomorrow will be 1m 25s shorter.
Waxing Crescent, 27% of the Moon is Illuminated
Today
Waxing Crescent
Aug 3
First Quarter
Aug 10
Full
Aug 17
Last Quarter
Aug 25
New

Today's Extremes

State Highs State Lows

Community

WunderPhotos

Upload Photos

1,739,587 photos uploaded!

Nearby

Snow Depth

Station Depth Elevation
No new snow has been reported.

Earthquake Activity

City Distance Mag. Time & Date
No recent earthquake activity has been reported nearby.
Minimum magnitude displayed is 2.5.

Coastal Water Temperatures

Place Temperature
Fernandina Beach, FL 87.1 °F
Mayport (Bar Pilots Dock), FL 86.0 °F

Nearby Weather Stations

Station Location Temp. Heat Index Dew Point Humidity Wind Precip. Elev Updated Type
Bloody Marsh, Saint Simons Island, GA 86.5 °F 97 °F 76 °F 71% SE  at  0.0 mph 0.00 in / hr 9 ft 9:24 AM EDT Rapid Fire
Country Walk, Brunswick, GA 84.7 °F 97 °F 79 °F 82% NW  at  0.0 mph 0.00 in / hr 30 ft 10:26 AM EDT Rapid Fire
Avalon Place, Brunswick, GA 85.6 °F 97 °F 77 °F 76% SE  at  2.2 mph 0.00 in / hr 43 ft 10:26 AM EDT Rapid Fire
MesoWest NERRS METEOROLOGICAL SITE ON SA, Sapelo Island, GA 81 °F 89 °F 78 °F 91% NNE  at  5 mph 0.00 in / hr 22 ft 9:00 AM EDT MADIS
RAWS STERLING GA, Brunswick, GA 83 °F 91 °F 76 °F 80% NNE  at  2 mph 0.00 in / hr 13 ft 9:04 AM EDT MADIS

Show More Stations Show Fewer Stations